Time;durP1;ratioP1;P1;durP2;ratioP2;P2;SDS_P1;SDS_P2;PMS_P1;PMS_P2;Temp;Humidity;BMP_temperature;BMP_pressure;BME280_temperature;BME280_humidity;BME280_pressure;Samples;Min_cycle;Max_cycle;Signal;HPM_P1;HPM_P2
2022/11/30 00:02:21;;;;;;;38.38;20.90;;;;;;;;;;5014862;28;20487;-75
2022/11/30 00:04:47;;;;;;;39.42;21.33;;;;;;;;;;5015130;28;20041;-75
2022/11/30 00:07:13;;;;;;;38.08;21.10;;;;;;;;;;5034780;28;20067;-75
2022/11/30 00:09:39;;;;;;;39.50;21.30;;;;;;;;;;5016944;28;20025;-75
2022/11/30 00:12:05;;;;;;;42.60;21.33;;;;;;;;;;5034737;28;20037;-75
2022/11/30 00:14:31;;;;;;;39.00;22.10;;;;;;;;;;5033994;28;20021;-76
2022/11/30 00:16:57;;;;;;;39.90;21.55;;;;;;;;;;5026939;28;20542;-75
2022/11/30 00:19:23;;;;;;;42.78;22.75;;;;;;;;;;4997046;28;20472;-75
2022/11/30 00:21:49;;;;;;;40.92;21.25;;;;;;;;;;5028949;28;20391;-75
2022/11/30 00:24:15;;;;;;;49.00;22.90;;;;;;;;;;5034541;28;20032;-75
2022/11/30 00:26:41;;;;;;;44.00;22.60;;;;;;;;;;5016626;28;20121;-75
2022/11/30 00:29:08;;;;;;;40.90;22.10;;;;;;;;;;5033929;28;20057;-75
2022/11/30 00:31:34;;;;;;;42.92;23.20;;;;;;;;;;5032989;28;20036;-75
2022/11/30 00:34:00;;;;;;;41.17;21.63;;;;;;;;;;5020003;28;20030;-75
2022/11/30 00:36:26;;;;;;;42.00;21.73;;;;;;;;;;5028007;28;20036;-75
2022/11/30 00:38:52;;;;;;;42.10;22.30;;;;;;;;;;5034178;28;20028;-75
2022/11/30 00:41:19;;;;;;;42.85;22.52;;;;;;;;;;5033900;28;20033;-75
2022/11/30 00:43:45;;;;;;;42.15;22.55;;;;;;;;;;5034206;28;20027;-76
2022/11/30 00:46:11;;;;;;;41.50;20.98;;;;;;;;;;5016221;28;20022;-75
2022/11/30 00:48:37;;;;;;;42.67;22.33;;;;;;;;;;5023688;28;20091;-75
2022/11/30 00:51:04;;;;;;;42.83;21.80;;;;;;;;;;5014245;28;20018;-76
2022/11/30 00:53:30;;;;;;;42.30;21.60;;;;;;;;;;5014139;28;20029;-75
2022/11/30 00:55:56;;;;;;;42.90;22.55;;;;;;;;;;5014295;28;20076;-75
2022/11/30 00:58:22;;;;;;;43.33;22.38;;;;;;;;;;5013782;28;20088;-75
2022/11/30 01:00:48;;;;;;;42.65;22.77;;;;;;;;;;5013895;28;20026;-75
2022/11/30 01:03:14;;;;;;;38.40;21.77;;;;;;;;;;5013952;28;20029;-75
2022/11/30 01:05:42;;;;;;;47.30;23.40;;;;;;;;;;5021346;28;20113;-75
2022/11/30 01:08:09;;;;;;;43.78;23.02;;;;;;;;;;5033158;28;20029;-75
2022/11/30 01:10:36;;;;;;;39.30;21.20;;;;;;;;;;5033033;28;20017;-75
2022/11/30 01:13:02;;;;;;;47.10;23.95;;;;;;;;;;5015551;28;20076;-75
2022/11/30 01:15:29;;;;;;;49.92;24.02;;;;;;;;;;5025770;28;20092;-75
2022/11/30 01:17:55;;;;;;;45.05;23.35;;;;;;;;;;5011434;28;20026;-75
2022/11/30 01:20:21;;;;;;;44.45;22.65;;;;;;;;;;5013190;28;20444;-75
2022/11/30 01:22:47;;;;;;;44.95;22.77;;;;;;;;;;5013521;28;20092;-75
2022/11/30 01:25:13;;;;;;;48.58;24.15;;;;;;;;;;5006462;28;20041;-75
2022/11/30 01:27:39;;;;;;;43.90;23.00;;;;;;;;;;5015648;28;20083;-74
2022/11/30 01:30:06;;;;;;;45.15;23.35;;;;;;;;;;5031436;28;20052;-76
2022/11/30 01:32:32;;;;;;;39.63;21.48;;;;;;;;;;5023600;28;20115;-75
2022/11/30 01:34:58;;;;;;;44.47;22.83;;;;;;;;;;5015499;28;20029;-75
2022/11/30 01:37:24;;;;;;;44.20;22.48;;;;;;;;;;5029022;28;20467;-75
2022/11/30 01:39:50;;;;;;;41.17;22.08;;;;;;;;;;5032682;28;20022;-75
2022/11/30 01:42:17;;;;;;;48.97;23.85;;;;;;;;;;5032971;28;20037;-76
2022/11/30 01:44:48;;;;;;;43.20;21.73;;;;;;;;;;5033247;28;20022;-75
2022/11/30 01:47:14;;;;;;;44.88;22.40;;;;;;;;;;5032827;28;20507;-75
2022/11/30 01:49:45;;;;;;;45.88;23.15;;;;;;;;;;5013858;28;20034;-76
2022/11/30 01:52:14;;;;;;;45.08;23.10;;;;;;;;;;5013187;28;20064;-75
2022/11/30 01:54:50;;;;;;;47.92;24.02;;;;;;;;;;5013015;28;20026;-75
2022/11/30 01:57:21;;;;;;;49.58;22.50;;;;;;;;;;5013234;28;20038;-75
2022/11/30 01:59:49;;;;;;;46.05;22.85;;;;;;;;;;5012943;28;20109;-76
2022/11/30 02:02:16;;;;;;;44.65;22.73;;;;;;;;;;5012985;28;20041;-75
2022/11/30 02:04:43;;;;;;;56.25;23.95;;;;;;;;;;5012924;28;20040;-75
2022/11/30 02:07:09;;;;;;;48.78;22.08;;;;;;;;;;5032172;28;20415;-75
2022/11/30 02:09:43;;;;;;;54.72;25.48;;;;;;;;;;5032642;28;20032;-75
2022/11/30 02:12:39;;;;;;;50.47;23.17;;;;;;;;;;5032222;28;20022;-75
2022/11/30 02:15:10;;;;;;;46.40;23.45;;;;;;;;;;4958764;28;20480;-75
2022/11/30 02:18:01;;;;;;;41.97;22.00;;;;;;;;;;5025663;28;20096;-75
2022/11/30 02:20:27;;;;;;;47.72;22.70;;;;;;;;;;5032260;28;20462;-74
2022/11/30 02:23:12;;;;;;;43.63;22.67;;;;;;;;;;5014609;28;20032;-75
2022/11/30 02:25:38;;;;;;;55.03;23.63;;;;;;;;;;5032169;28;20071;-75
2022/11/30 02:28:07;;;;;;;44.83;23.58;;;;;;;;;;5032090;28;20021;-76
2022/11/30 02:30:34;;;;;;;46.85;23.38;;;;;;;;;;5009014;28;20031;-76
2022/11/30 02:33:02;;;;;;;48.05;23.67;;;;;;;;;;5007645;28;20109;-75
2022/11/30 02:35:30;;;;;;;49.10;23.98;;;;;;;;;;5014889;28;20033;-76
2022/11/30 02:37:57;;;;;;;46.47;23.55;;;;;;;;;;5017221;28;20025;-75
2022/11/30 02:40:23;;;;;;;47.17;23.75;;;;;;;;;;5012265;28;20026;-75
2022/11/30 02:42:51;;;;;;;55.47;25.55;;;;;;;;;;5011852;28;20038;-76
2022/11/30 02:45:21;;;;;;;48.75;23.90;;;;;;;;;;5012247;28;20034;-75
2022/11/30 02:47:54;;;;;;;45.65;23.35;;;;;;;;;;5011959;28;20022;-75
2022/11/30 02:50:23;;;;;;;49.20;22.85;;;;;;;;;;5012113;28;20511;-75
2022/11/30 02:52:50;;;;;;;47.50;24.45;;;;;;;;;;5011751;28;20030;-75
2022/11/30 02:55:17;;;;;;;46.00;22.42;;;;;;;;;;4994217;28;20076;-75
2022/11/30 02:57:43;;;;;;;50.13;22.25;;;;;;;;;;5012249;28;20452;-75
2022/11/30 03:00:10;;;;;;;48.58;22.10;;;;;;;;;;5012053;28;20392;-75
2022/11/30 03:02:37;;;;;;;46.75;22.30;;;;;;;;;;5011911;28;20380;-75
2022/11/30 03:05:03;;;;;;;46.67;23.40;;;;;;;;;;5014374;28;20499;-75
2022/11/30 03:07:29;;;;;;;50.58;23.40;;;;;;;;;;5031835;28;20100;-76
2022/11/30 03:09:56;;;;;;;50.78;23.15;;;;;;;;;;5013948;28;20022;-75
2022/11/30 03:12:22;;;;;;;50.20;24.10;;;;;;;;;;5031697;28;20053;-75
2022/11/30 03:14:48;;;;;;;45.97;22.38;;;;;;;;;;5030958;28;20376;-75
2022/11/30 03:17:14;;;;;;;48.72;23.10;;;;;;;;;;5020760;28;21011;-75
2022/11/30 03:19:40;;;;;;;53.55;23.02;;;;;;;;;;5012048;28;20028;-75
2022/11/30 03:22:06;;;;;;;43.72;22.40;;;;;;;;;;5028944;28;20105;-75
2022/11/30 03:24:32;;;;;;;49.80;23.58;;;;;;;;;;5008190;28;20022;-75
2022/11/30 03:26:58;;;;;;;51.33;23.67;;;;;;;;;;5011832;28;20026;-75
2022/11/30 03:29:24;;;;;;;58.03;24.13;;;;;;;;;;4996771;28;20025;-76
2022/11/30 03:31:50;;;;;;;51.47;22.25;;;;;;;;;;5031420;28;20029;-76
2022/11/30 03:34:16;;;;;;;48.50;23.08;;;;;;;;;;5031353;28;20033;-75
2022/11/30 03:36:42;;;;;;;51.58;23.60;;;;;;;;;;5001448;28;20427;-75
2022/11/30 03:39:08;;;;;;;49.03;23.38;;;;;;;;;;5013525;28;20029;-76
2022/11/30 03:41:35;;;;;;;47.92;22.17;;;;;;;;;;5031187;28;20393;-75
2022/11/30 03:44:01;;;;;;;50.60;22.63;;;;;;;;;;5031145;28;20025;-76
2022/11/30 03:46:27;;;;;;;58.33;23.85;;;;;;;;;;5031528;28;20109;-76
2022/11/30 03:48:53;;;;;;;44.33;21.73;;;;;;;;;;5013583;28;20060;-76
2022/11/30 03:51:19;;;;;;;49.35;22.83;;;;;;;;;;5031456;28;20041;-76
2022/11/30 03:53:45;;;;;;;52.55;22.67;;;;;;;;;;5031225;28;20379;-76
2022/11/30 03:56:13;;;;;;;52.97;23.52;;;;;;;;;;5031458;28;20463;-76
2022/11/30 03:58:39;;;;;;;48.08;22.10;;;;;;;;;;5031382;28;20022;-76
2022/11/30 04:01:06;;;;;;;54.00;24.05;;;;;;;;;;5031050;28;20116;-76
2022/11/30 04:03:33;;;;;;;44.88;22.33;;;;;;;;;;5031889;28;20021;-76
2022/11/30 04:05:59;;;;;;;50.22;21.92;;;;;;;;;;5034856;28;20029;-76
2022/11/30 04:08:25;;;;;;;43.15;21.95;;;;;;;;;;5034897;28;20017;-76
2022/11/30 04:10:53;;;;;;;44.40;20.80;;;;;;;;;;5034577;28;20021;-76
2022/11/30 04:13:19;;;;;;;58.63;22.92;;;;;;;;;;5034593;28;20527;-76
2022/11/30 04:15:46;;;;;;;47.85;22.30;;;;;;;;;;5033874;28;20025;-75
2022/11/30 04:18:12;;;;;;;45.50;21.92;;;;;;;;;;4997848;28;20030;-75
2022/11/30 04:20:38;;;;;;;47.70;21.98;;;;;;;;;;5020284;28;20478;-76
2022/11/30 04:23:04;;;;;;;48.10;23.00;;;;;;;;;;5034293;28;20079;-76
2022/11/30 04:25:30;;;;;;;46.47;21.45;;;;;;;;;;5034345;28;20037;-76
2022/11/30 04:27:57;;;;;;;45.65;21.20;;;;;;;;;;5034367;28;20037;-75
2022/11/30 04:30:23;;;;;;;46.78;22.08;;;;;;;;;;5033929;28;20052;-76
2022/11/30 04:32:49;;;;;;;43.58;21.25;;;;;;;;;;5028556;28;20034;-76
2022/11/30 04:35:15;;;;;;;53.78;22.88;;;;;;;;;;5016048;28;20041;-75
2022/11/30 04:37:41;;;;;;;42.53;20.58;;;;;;;;;;5029340;28;20026;-76
2022/11/30 04:40:08;;;;;;;46.47;22.42;;;;;;;;;;5014488;28;20069;-75
2022/11/30 04:42:34;;;;;;;49.83;22.20;;;;;;;;;;5019603;28;20060;-75
2022/11/30 04:45:00;;;;;;;47.97;22.08;;;;;;;;;;5032094;28;20034;-75
2022/11/30 04:47:26;;;;;;;51.60;23.02;;;;;;;;;;5033366;28;20026;-75
2022/11/30 04:49:52;;;;;;;50.40;21.33;;;;;;;;;;4989479;28;20018;-74
2022/11/30 04:52:18;;;;;;;45.97;20.60;;;;;;;;;;5034921;28;20044;-76
2022/11/30 04:54:44;;;;;;;48.28;21.60;;;;;;;;;;5029418;28;20021;-75
2022/11/30 04:57:10;;;;;;;49.22;20.83;;;;;;;;;;5034893;28;20057;-75
2022/11/30 04:59:36;;;;;;;49.53;21.98;;;;;;;;;;5008466;28;20033;-75
2022/11/30 05:02:02;;;;;;;51.63;22.10;;;;;;;;;;5015307;28;20410;-75
2022/11/30 05:04:28;;;;;;;53.20;22.20;;;;;;;;;;5030558;28;20021;-75
2022/11/30 05:06:54;;;;;;;53.90;23.73;;;;;;;;;;5017167;28;20875;-75
2022/11/30 05:09:20;;;;;;;61.10;22.75;;;;;;;;;;5015186;28;20037;-75
2022/11/30 05:11:47;;;;;;;45.63;21.33;;;;;;;;;;5027520;28;20379;-75
2022/11/30 05:14:13;;;;;;;47.42;21.58;;;;;;;;;;5016431;28;20126;-75
2022/11/30 05:16:39;;;;;;;49.03;21.75;;;;;;;;;;5032581;28;20091;-75
2022/11/30 05:19:05;;;;;;;44.13;21.52;;;;;;;;;;5014640;28;20041;-75
2022/11/30 05:21:31;;;;;;;49.22;21.63;;;;;;;;;;4997079;28;20033;-75
2022/11/30 05:23:57;;;;;;;51.35;21.48;;;;;;;;;;5023583;28;20369;-75
2022/11/30 05:26:24;;;;;;;45.17;20.33;;;;;;;;;;5018884;28;20026;-75
2022/11/30 05:28:50;;;;;;;61.08;21.98;;;;;;;;;;5003896;28;20140;-74
2022/11/30 05:31:16;;;;;;;44.20;21.30;;;;;;;;;;5025948;28;20042;-74
2022/11/30 05:33:42;;;;;;;47.58;22.00;;;;;;;;;;5008733;28;20117;-74
2022/11/30 05:36:08;;;;;;;42.95;20.25;;;;;;;;;;5026336;28;20033;-74
2022/11/30 05:38:34;;;;;;;49.45;21.85;;;;;;;;;;5003647;28;20416;-74
2022/11/30 05:41:01;;;;;;;44.65;22.08;;;;;;;;;;5003064;28;20026;-74
2022/11/30 05:43:27;;;;;;;53.15;22.60;;;;;;;;;;5002752;28;20017;-74
2022/11/30 05:45:59;;;;;;;48.60;22.25;;;;;;;;;;5020960;28;20018;-74
2022/11/30 05:48:25;;;;;;;55.53;22.42;;;;;;;;;;5027260;28;20021;-74
2022/11/30 05:50:51;;;;;;;55.05;22.50;;;;;;;;;;5023529;28;20018;-74
2022/11/30 05:53:17;;;;;;;51.45;22.83;;;;;;;;;;5005686;28;20044;-74
2022/11/30 05:55:44;;;;;;;52.13;23.17;;;;;;;;;;5004716;28;20018;-74
2022/11/30 05:58:11;;;;;;;50.97;21.98;;;;;;;;;;5026882;28;20044;-74
2022/11/30 06:00:37;;;;;;;51.75;22.73;;;;;;;;;;4995290;28;20468;-74
2022/11/30 06:03:03;;;;;;;51.33;21.70;;;;;;;;;;5023833;28;20395;-74
2022/11/30 06:05:29;;;;;;;50.17;22.10;;;;;;;;;;5023996;28;20360;-74
2022/11/30 06:07:55;;;;;;;47.08;21.63;;;;;;;;;;5020992;28;20497;-74
2022/11/30 06:10:21;;;;;;;49.63;22.35;;;;;;;;;;5027097;28;20436;-74
2022/11/30 06:12:47;;;;;;;50.85;21.98;;;;;;;;;;5022149;28;20056;-74
2022/11/30 06:15:13;;;;;;;50.80;22.00;;;;;;;;;;5024440;28;20022;-74
2022/11/30 06:17:39;;;;;;;47.70;21.85;;;;;;;;;;5025516;28;20057;-74
2022/11/30 06:20:06;;;;;;;51.00;22.55;;;;;;;;;;5020629;28;20029;-73
2022/11/30 06:22:32;;;;;;;53.20;21.13;;;;;;;;;;5004672;28;20029;-74
2022/11/30 06:24:58;;;;;;;48.88;21.90;;;;;;;;;;5002672;28;20514;-74
2022/11/30 06:27:24;;;;;;;48.35;20.58;;;;;;;;;;5021271;28;20037;-74
2022/11/30 06:29:50;;;;;;;42.35;19.98;;;;;;;;;;5022291;28;20028;-74
2022/11/30 06:32:16;;;;;;;54.03;21.75;;;;;;;;;;5024173;28;20103;-74
2022/11/30 06:34:42;;;;;;;53.83;22.08;;;;;;;;;;5004504;28;20029;-74
2022/11/30 06:37:09;;;;;;;54.97;22.70;;;;;;;;;;5020961;28;20032;-74
2022/11/30 06:39:35;;;;;;;52.95;21.13;;;;;;;;;;5022724;28;20021;-74
2022/11/30 06:42:01;;;;;;;48.42;22.17;;;;;;;;;;5023664;28;20026;-74
2022/11/30 06:44:27;;;;;;;52.53;22.65;;;;;;;;;;5023109;28;20036;-74
2022/11/30 06:46:53;;;;;;;52.83;21.95;;;;;;;;;;5020608;28;20010;-74
2022/11/30 06:49:19;;;;;;;47.83;21.42;;;;;;;;;;5024687;28;20033;-74
2022/11/30 06:51:45;;;;;;;49.83;21.10;;;;;;;;;;5003670;28;20038;-74
2022/11/30 06:54:11;;;;;;;51.05;22.33;;;;;;;;;;5023110;28;20037;-74
2022/11/30 06:56:37;;;;;;;45.35;19.63;;;;;;;;;;5020244;28;20415;-74
2022/11/30 06:59:03;;;;;;;44.25;20.08;;;;;;;;;;5021541;28;20725;-74
2022/11/30 07:01:29;;;;;;;50.92;21.05;;;;;;;;;;5021906;28;20419;-74
2022/11/30 07:03:55;;;;;;;49.67;21.83;;;;;;;;;;5019907;28;20072;-75
2022/11/30 07:06:21;;;;;;;43.70;20.27;;;;;;;;;;5025244;28;20029;-74
2022/11/30 07:08:48;;;;;;;47.80;19.60;;;;;;;;;;5004039;28;20026;-74
2022/11/30 07:11:14;;;;;;;42.78;19.77;;;;;;;;;;5022726;28;20361;-74
2022/11/30 07:13:40;;;;;;;46.60;20.25;;;;;;;;;;5019778;28;20140;-74
2022/11/30 07:16:08;;;;;;;38.95;20.23;;;;;;;;;;5006821;28;20053;-74
2022/11/30 07:18:34;;;;;;;42.03;19.45;;;;;;;;;;5019747;28;20026;-74
2022/11/30 07:21:01;;;;;;;41.40;19.10;;;;;;;;;;5025540;28;20025;-74
2022/11/30 07:26:12;;;;;;;55.47;23.63;;;;;;;;;;5011933;28;20045;-74
2022/11/30 07:28:39;;;;;;;52.30;22.08;;;;;;;;;;5011665;28;20086;-74
2022/11/30 07:31:14;;;;;;;46.28;20.40;;;;;;;;;;5023587;28;20025;-74
2022/11/30 07:33:40;;;;;;;53.80;20.98;;;;;;;;;;5018139;28;20042;-74
2022/11/30 07:36:06;;;;;;;42.90;20.48;;;;;;;;;;5002805;28;20021;-74
2022/11/30 07:38:32;;;;;;;44.95;20.17;;;;;;;;;;5014899;28;20045;-75
2022/11/30 07:40:58;;;;;;;45.47;19.50;;;;;;;;;;5035239;28;20364;-74
2022/11/30 07:43:25;;;;;;;44.92;20.80;;;;;;;;;;5034890;28;20423;-74
2022/11/30 07:45:52;;;;;;;41.65;19.67;;;;;;;;;;5016984;28;20499;-74
2022/11/30 07:48:18;;;;;;;49.97;21.40;;;;;;;;;;5025528;28;20030;-74
2022/11/30 07:50:44;;;;;;;48.45;19.88;;;;;;;;;;5015219;28;20030;-74
2022/11/30 07:53:10;;;;;;;47.00;20.98;;;;;;;;;;4997325;28;20104;-74
2022/11/30 07:55:36;;;;;;;48.95;22.13;;;;;;;;;;5015196;28;20029;-74
2022/11/30 07:58:02;;;;;;;46.67;19.55;;;;;;;;;;5014650;28;20026;-74
2022/11/30 08:00:28;;;;;;;45.90;19.80;;;;;;;;;;5023851;28;20025;-73
2022/11/30 08:02:54;;;;;;;51.53;22.65;;;;;;;;;;5025376;28;20025;-74
2022/11/30 08:05:21;;;;;;;49.92;22.10;;;;;;;;;;5026949;28;20030;-74
2022/11/30 08:07:51;;;;;;;48.88;21.35;;;;;;;;;;5023671;28;20022;-73
2022/11/30 08:10:17;;;;;;;52.58;19.45;;;;;;;;;;5025910;28;20014;-74
2022/11/30 08:12:43;;;;;;;49.28;21.58;;;;;;;;;;5023013;28;20460;-74
2022/11/30 08:15:09;;;;;;;44.42;20.75;;;;;;;;;;5023638;28;20392;-74
2022/11/30 08:17:35;;;;;;;50.22;20.63;;;;;;;;;;5009519;28;20041;-74
2022/11/30 08:20:01;;;;;;;57.22;21.45;;;;;;;;;;5023570;28;20033;-74
2022/11/30 08:22:27;;;;;;;51.47;21.95;;;;;;;;;;5007361;28;20034;-74
2022/11/30 08:24:53;;;;;;;57.15;22.30;;;;;;;;;;5026692;28;20407;-74
2022/11/30 08:27:19;;;;;;;59.25;22.60;;;;;;;;;;5022733;28;20053;-74
2022/11/30 08:29:45;;;;;;;90.78;28.17;;;;;;;;;;5026856;28;20025;-74
2022/11/30 08:32:11;;;;;;;80.75;27.70;;;;;;;;;;5025557;28;20022;-74
2022/11/30 08:34:37;;;;;;;78.18;27.30;;;;;;;;;;5025565;28;20041;-74
2022/11/30 08:37:04;;;;;;;120.50;30.63;;;;;;;;;;5025409;28;20036;-74
2022/11/30 08:39:32;;;;;;;92.00;28.92;;;;;;;;;;5023946;28;20040;-74
2022/11/30 08:41:58;;;;;;;94.97;28.83;;;;;;;;;;5023873;28;20065;-74
2022/11/30 08:44:24;;;;;;;72.15;29.02;;;;;;;;;;5020974;28;20101;-74
2022/11/30 08:46:51;;;;;;;85.63;28.98;;;;;;;;;;5004961;28;20144;-74
2022/11/30 08:49:17;;;;;;;203.85;34.63;;;;;;;;;;5022770;28;20029;-74
2022/11/30 08:51:43;;;;;;;136.57;32.05;;;;;;;;;;5016165;28;20033;-74
2022/11/30 08:54:09;;;;;;;242.82;39.03;;;;;;;;;;5014182;28;20092;-74
2022/11/30 08:56:35;;;;;;;79.72;26.40;;;;;;;;;;5014028;28;20465;-74
2022/11/30 08:59:01;;;;;;;86.13;28.17;;;;;;;;;;5014021;28;20034;-74
2022/11/30 09:01:27;;;;;;;71.10;25.15;;;;;;;;;;5013821;28;20519;-74
2022/11/30 09:03:54;;;;;;;72.25;25.58;;;;;;;;;;4996339;28;20026;-74
2022/11/30 09:06:24;;;;;;;89.53;28.92;;;;;;;;;;5026850;28;20510;-75
2022/11/30 09:08:55;;;;;;;79.82;26.95;;;;;;;;;;5033453;28;20033;-74
2022/11/30 09:11:25;;;;;;;91.05;28.05;;;;;;;;;;5033767;28;20021;-74
2022/11/30 09:13:52;;;;;;;73.65;26.15;;;;;;;;;;5032349;28;20046;-74
2022/11/30 09:16:19;;;;;;;70.57;25.85;;;;;;;;;;5031354;28;20045;-74
2022/11/30 09:18:45;;;;;;;67.38;26.45;;;;;;;;;;5021853;28;20022;-74
2022/11/30 09:21:13;;;;;;;69.22;27.17;;;;;;;;;;5025097;28;20116;-73
2022/11/30 09:23:39;;;;;;;74.97;27.25;;;;;;;;;;5033158;28;20070;-74
2022/11/30 09:26:06;;;;;;;77.28;28.00;;;;;;;;;;5032905;28;20479;-75
2022/11/30 09:28:33;;;;;;;73.65;27.35;;;;;;;;;;5033008;28;20025;-73
2022/11/30 09:31:03;;;;;;;72.20;29.08;;;;;;;;;;5031375;28;20367;-75
2022/11/30 09:33:30;;;;;;;73.40;27.33;;;;;;;;;;5020632;28;20033;-73
2022/11/30 09:35:59;;;;;;;71.05;25.85;;;;;;;;;;5003371;28;20026;-74
2022/11/30 09:38:25;;;;;;;73.07;26.95;;;;;;;;;;5025558;28;20030;-74
2022/11/30 09:40:56;;;;;;;62.35;26.45;;;;;;;;;;5023383;28;20026;-74
2022/11/30 09:43:41;;;;;;;71.95;29.10;;;;;;;;;;5012909;28;20026;-74
2022/11/30 09:46:08;;;;;;;59.40;25.58;;;;;;;;;;5023060;28;20435;-74
2022/11/30 09:48:54;;;;;;;67.35;27.42;;;;;;;;;;5022304;28;20029;-74
2022/11/30 09:51:24;;;;;;;68.72;27.08;;;;;;;;;;5031491;28;20032;-74
2022/11/30 09:54:06;;;;;;;76.00;28.55;;;;;;;;;;5030957;28;20059;-74
2022/11/30 09:56:35;;;;;;;73.95;29.77;;;;;;;;;;5031184;28;20053;-74
2022/11/30 09:59:13;;;;;;;85.78;29.52;;;;;;;;;;5032370;28;20018;-74
2022/11/30 10:01:39;;;;;;;72.25;30.58;;;;;;;;;;5027327;28;20033;-74
2022/11/30 10:04:06;;;;;;;76.97;28.77;;;;;;;;;;5012530;28;20112;-74
2022/11/30 10:06:36;;;;;;;82.15;32.08;;;;;;;;;;5028432;28;20034;-74
2022/11/30 10:09:21;;;;;;;89.97;33.85;;;;;;;;;;5028818;28;20025;-74
2022/11/30 10:11:53;;;;;;;101.55;35.30;;;;;;;;;;5031973;28;20029;-74
2022/11/30 10:14:38;;;;;;;96.78;33.92;;;;;;;;;;5031009;28;20483;-75
2022/11/30 10:17:24;;;;;;;94.28;37.00;;;;;;;;;;5048897;28;20035;-74
2022/11/30 10:20:09;;;;;;;83.93;34.08;;;;;;;;;;5011993;28;20026;-74
2022/11/30 10:22:54;;;;;;;84.53;31.77;;;;;;;;;;5014158;28;20499;-74
2022/11/30 10:25:29;;;;;;;72.15;31.65;;;;;;;;;;5022774;28;20041;-74
2022/11/30 10:28:00;;;;;;;77.60;30.00;;;;;;;;;;5019639;28;20045;-74
2022/11/30 10:30:31;;;;;;;75.18;30.38;;;;;;;;;;5021650;28;20026;-74
2022/11/30 10:32:59;;;;;;;74.33;30.67;;;;;;;;;;5022600;28;20033;-74
2022/11/30 10:35:27;;;;;;;73.93;29.73;;;;;;;;;;5023273;28;20479;-74
2022/11/30 10:37:54;;;;;;;73.30;30.80;;;;;;;;;;5021417;28;20026;-74
2022/11/30 10:40:26;;;;;;;75.38;29.95;;;;;;;;;;5020751;28;20036;-74
2022/11/30 10:42:58;;;;;;;64.00;29.55;;;;;;;;;;5011522;28;20423;-74
2022/11/30 10:45:26;;;;;;;70.50;29.60;;;;;;;;;;5022773;28;20043;-74
2022/11/30 10:47:52;;;;;;;63.85;28.92;;;;;;;;;;5021240;28;20028;-74
2022/11/30 10:50:27;;;;;;;57.03;25.90;;;;;;;;;;5023214;28;20457;-77
2022/11/30 10:52:55;;;;;;;56.97;26.35;;;;;;;;;;5023847;28;20041;-73
2022/11/30 10:55:24;;;;;;;58.47;27.13;;;;;;;;;;5019956;28;20026;-74
2022/11/30 10:57:58;;;;;;;55.40;26.30;;;;;;;;;;5023198;28;20022;-75
2022/11/30 11:00:24;;;;;;;54.78;26.00;;;;;;;;;;5021183;28;20105;-74
2022/11/30 11:02:51;;;;;;;54.08;25.40;;;;;;;;;;4985816;28;20034;-74
2022/11/30 11:05:22;;;;;;;52.70;25.58;;;;;;;;;;5020328;28;20563;-74
2022/11/30 11:07:49;;;;;;;50.13;25.92;;;;;;;;;;5022010;28;20042;-74
2022/11/30 11:10:19;;;;;;;50.42;23.02;;;;;;;;;;5007335;28;20038;-74
2022/11/30 11:12:46;;;;;;;46.17;23.40;;;;;;;;;;5031369;28;20117;-74
2022/11/30 11:15:23;;;;;;;48.15;23.35;;;;;;;;;;5031586;28;20105;-74
2022/11/30 11:17:49;;;;;;;43.60;22.42;;;;;;;;;;5019543;28;20041;-74
2022/11/30 11:20:30;;;;;;;44.42;23.27;;;;;;;;;;5030278;28;20033;-74
2022/11/30 11:22:56;;;;;;;40.08;21.75;;;;;;;;;;5016883;28;20459;-74
2022/11/30 11:25:25;;;;;;;38.78;20.23;;;;;;;;;;5025332;28;20033;-74
2022/11/30 11:27:55;;;;;;;37.35;18.63;;;;;;;;;;5026514;28;20104;-74
2022/11/30 11:30:31;;;;;;;36.80;19.17;;;;;;;;;;5023569;28;20021;-74
2022/11/30 11:33:12;;;;;;;38.10;18.90;;;;;;;;;;5021970;28;20421;-74
2022/11/30 11:35:40;;;;;;;32.53;17.83;;;;;;;;;;5019809;28;20677;-74
2022/11/30 11:38:26;;;;;;;32.22;18.25;;;;;;;;;;5022139;28;20079;-74
2022/11/30 11:40:52;;;;;;;31.85;17.75;;;;;;;;;;5027706;28;20379;-74
2022/11/30 11:43:18;;;;;;;34.38;18.08;;;;;;;;;;5017425;28;20030;-74
2022/11/30 11:45:49;;;;;;;31.67;17.95;;;;;;;;;;5027404;28;20026;-74
2022/11/30 11:48:25;;;;;;;32.07;17.63;;;;;;;;;;5017703;28;20037;-74
2022/11/30 11:51:10;;;;;;;30.73;16.88;;;;;;;;;;5015358;28;20022;-74
2022/11/30 11:53:45;;;;;;;30.45;17.55;;;;;;;;;;5032838;28;20108;-73
2022/11/30 11:56:24;;;;;;;30.67;17.80;;;;;;;;;;5031828;28;20053;-74
2022/11/30 11:59:10;;;;;;;30.15;16.95;;;;;;;;;;5025141;28;20525;-74
2022/11/30 12:01:44;;;;;;;31.52;16.60;;;;;;;;;;5028029;28;20052;-74
2022/11/30 12:04:23;;;;;;;29.98;16.90;;;;;;;;;;5019484;28;20025;-74
2022/11/30 12:06:51;;;;;;;26.70;15.60;;;;;;;;;;5017242;28;20022;-74
2022/11/30 12:09:19;;;;;;;29.95;15.95;;;;;;;;;;5015764;28;20053;-74
2022/11/30 12:11:47;;;;;;;35.60;17.15;;;;;;;;;;5027824;28;20025;-74
2022/11/30 12:14:15;;;;;;;29.27;17.25;;;;;;;;;;5027969;28;20484;-74
2022/11/30 12:16:59;;;;;;;28.92;16.52;;;;;;;;;;4997686;28;20547;-73
2022/11/30 12:19:40;;;;;;;34.05;18.20;;;;;;;;;;5009430;28;20029;-73
2022/11/30 12:22:09;;;;;;;36.08;18.17;;;;;;;;;;5024963;28;20060;-75
2022/11/30 12:24:47;;;;;;;30.52;17.25;;;;;;;;;;5032323;28;20087;-75
2022/11/30 12:27:29;;;;;;;35.95;19.63;;;;;;;;;;5014486;28;20022;-75
2022/11/30 12:30:18;;;;;;;35.17;19.38;;;;;;;;;;5024831;28;20044;-75
2022/11/30 12:33:02;;;;;;;32.45;18.80;;;;;;;;;;5020850;28;20471;-75
2022/11/30 12:35:28;;;;;;;32.15;17.50;;;;;;;;;;5025871;28;20042;-75
2022/11/30 12:38:27;;;;;;;32.63;18.45;;;;;;;;;;5006997;28;20480;-75
2022/11/30 12:40:53;;;;;;;32.60;17.88;;;;;;;;;;4993361;28;20049;-74
2022/11/30 12:43:51;;;;;;;34.72;18.17;;;;;;;;;;5008464;28;20456;-74
2022/11/30 12:46:28;;;;;;;33.70;17.45;;;;;;;;;;4995362;28;20041;-74
2022/11/30 12:49:08;;;;;;;30.33;18.00;;;;;;;;;;5024853;28;20022;-74
2022/11/30 12:51:57;;;;;;;33.90;17.27;;;;;;;;;;5002447;28;20138;-74
2022/11/30 12:54:37;;;;;;;34.28;18.85;;;;;;;;;;5004676;28;20431;-74
2022/11/30 12:57:12;;;;;;;32.60;17.55;;;;;;;;;;5033891;28;20104;-75
2022/11/30 12:59:57;;;;;;;33.65;18.48;;;;;;;;;;5031908;28;20022;-73
2022/11/30 13:02:41;;;;;;;35.28;18.42;;;;;;;;;;5024066;28;20064;-73
2022/11/30 13:05:11;;;;;;;29.17;16.90;;;;;;;;;;5032631;28;20498;-72
2022/11/30 13:07:42;;;;;;;36.15;18.60;;;;;;;;;;5033288;28;20126;-73
2022/11/30 13:10:17;;;;;;;37.00;18.55;;;;;;;;;;5033581;28;20483;-73
2022/11/30 13:12:45;;;;;;;32.28;19.02;;;;;;;;;;5033255;28;20025;-72
2022/11/30 13:15:18;;;;;;;37.00;19.80;;;;;;;;;;5033308;28;20383;-73
2022/11/30 13:17:45;;;;;;;34.83;18.77;;;;;;;;;;5029552;28;20080;-72
2022/11/30 13:20:29;;;;;;;32.33;17.27;;;;;;;;;;5033239;28;20110;-72
2022/11/30 13:22:59;;;;;;;34.97;17.23;;;;;;;;;;5037696;28;20029;-73
2022/11/30 13:25:32;;;;;;;35.65;18.00;;;;;;;;;;5037642;28;20041;-73
2022/11/30 13:28:13;;;;;;;28.05;15.93;;;;;;;;;;5032863;28;20054;-73
2022/11/30 13:30:53;;;;;;;28.08;15.70;;;;;;;;;;5031990;28;20047;-73
2022/11/30 13:33:34;;;;;;;29.50;15.65;;;;;;;;;;5013014;28;20037;-72
2022/11/30 13:36:26;;;;;;;26.98;14.25;;;;;;;;;;5021673;28;20033;-74
2022/11/30 13:39:08;;;;;;;24.05;13.18;;;;;;;;;;4985579;28;20179;-73
2022/11/30 13:41:35;;;;;;;28.50;14.50;;;;;;;;;;5032869;28;20021;-73
2022/11/30 13:44:01;;;;;;;25.95;13.45;;;;;;;;;;5032867;28;20025;-73
2022/11/30 13:46:28;;;;;;;23.80;12.80;;;;;;;;;;5032609;28;20123;-73
2022/11/30 13:49:13;;;;;;;20.80;11.45;;;;;;;;;;5017321;28;20099;-73
2022/11/30 13:51:41;;;;;;;22.88;11.63;;;;;;;;;;5012833;28;20056;-73
2022/11/30 13:54:25;;;;;;;22.52;11.02;;;;;;;;;;5038591;28;20017;-73
2022/11/30 13:56:52;;;;;;;20.40;10.73;;;;;;;;;;5032455;28;20491;-74
2022/11/30 13:59:23;;;;;;;18.58;9.02;;;;;;;;;;5030655;28;20044;-72
2022/11/30 14:01:50;;;;;;;17.23;8.90;;;;;;;;;;5024886;28;20113;-72
2022/11/30 14:04:16;;;;;;;19.83;11.10;;;;;;;;;;4994285;28;20042;-73
2022/11/30 14:06:42;;;;;;;20.77;11.07;;;;;;;;;;5007598;28;20021;-73
2022/11/30 14:09:15;;;;;;;17.77;10.27;;;;;;;;;;5032443;28;20072;-72
2022/11/30 14:11:42;;;;;;;20.88;10.85;;;;;;;;;;5032562;28;20052;-72
2022/11/30 14:14:32;;;;;;;17.08;9.52;;;;;;;;;;5012939;28;20052;-72
2022/11/30 14:16:58;;;;;;;16.00;9.40;;;;;;;;;;5024441;28;20056;-71
2022/11/30 14:19:25;;;;;;;18.50;9.52;;;;;;;;;;5023841;28;20033;-72
2022/11/30 14:21:51;;;;;;;20.25;10.23;;;;;;;;;;5032095;28;20083;-71
2022/11/30 14:24:20;;;;;;;19.17;11.18;;;;;;;;;;5024121;28;20030;-72
2022/11/30 14:26:47;;;;;;;20.80;10.93;;;;;;;;;;5032134;28;20033;-71
2022/11/30 14:29:19;;;;;;;20.15;11.00;;;;;;;;;;5012047;28;20030;-72
2022/11/30 14:31:47;;;;;;;22.70;11.60;;;;;;;;;;5023852;28;20045;-72